Jj Sky — VRJA6 — position and weather

sailwx.info

Track history (hours):
 
Tides and Currents Weather Stations Pressure Air Temp Water Temp Dewpoint Dewpoint Depression Visibility Wind Speed Wind Dir Waves Ship Positions

Jj Sky

Last reported at 2016-Jul-29 10:28 UTC. Time now 2016-Jul-31 00:20 UTC.
Position N 31°06' E 122°43'.

Length 148 m; draft 7.2 m.

Type: Ship (hazmat cat D). MMSI: 477397500.

Date/timePositionNaut miles runAvg speedWind from/ knotsBaromVisibWave heightAir tempDewpointWater temp
2016-Jul-29 10:28N 31°06' E 122°43'5410.9
2016-Jul-29 05:31N 31°20' E 121°42'1 1.2
2016-Jul-29 04:19N 31°20' E 121°40'1 0.1
2016-Jul-28 20:29N 31°20' E 121°39'4 1.2
2016-Jul-28 17:31N 31°23' E 121°37'0 0.0
2016-Jul-28 15:09N 31°23' E 121°37'0 0.1
2016-Jul-28 14:14N 31°23' E 121°37'0 0.0
2016-Jul-28 13:14N 31°23' E 121°37'0 0.0
2016-Jul-28 12:32N 31°23' E 121°37'5 5.4
2016-Jul-28 11:33N 31°23' E 121°30'6 5.7
2016-Jul-28 10:33N 31°18' E 121°33'5 5.2
2016-Jul-28 09:30N 31°14' E 121°30'  
Track history (hours):
 
Tides and Currents Weather Stations Pressure Air Temp Water Temp Dewpoint Dewpoint Depression Visibility Wind Speed Wind Dir Waves Ship Positions

Jj Sky

Last reported at 2016-Jul-29 10:28 UTC. Time now 2016-Jul-31 00:20 UTC.
Position N 31°06' E 122°43'.

Length 148 m; draft 7.2 m.

Type: Ship (hazmat cat D). MMSI: 477397500.

Date/timePositionNaut miles runAvg speedWind from/ knotsBaromVisibWave heightAir tempDewpointWater temp
2016-Jul-29 10:28N 31°06' E 122°43'5410.9
2016-Jul-29 05:31N 31°20' E 121°42'1 1.2
2016-Jul-29 04:19N 31°20' E 121°40'1 0.1
2016-Jul-28 20:29N 31°20' E 121°39'4 1.2
2016-Jul-28 17:31N 31°23' E 121°37'0 0.0
2016-Jul-28 15:09N 31°23' E 121°37'0 0.1
2016-Jul-28 14:14N 31°23' E 121°37'0 0.0
2016-Jul-28 13:14N 31°23' E 121°37'0 0.0
2016-Jul-28 12:32N 31°23' E 121°37'5 5.4
2016-Jul-28 11:33N 31°23' E 121°30'6 5.7
2016-Jul-28 10:33N 31°18' E 121°33'5 5.2
2016-Jul-28 09:30N 31°14' E 121°30'  

Dump ship's entire track history